Time;durP1;ratioP1;P1;durP2;ratioP2;P2;SDS_P1;SDS_P2;PMS_P1;PMS_P2;Temp;Humidity;BMP_temperature;BMP_pressure;BME280_temperature;BME280_humidity;BME280_pressure;Samples;Min_cycle;Max_cycle;Signal;HPM_P1;HPM_P2
2023/03/01 00:01:00;;;;;;;2.53;2.33;;;15.60;56.80;16.30;102120.00;;;;5027795;28;20204;-43
2023/03/01 00:03:26;;;;;;;2.20;2.00;;;15.60;56.80;16.20;102130.00;;;;5026911;28;20171;-44
2023/03/01 00:05:51;;;;;;;2.40;2.20;;;15.60;56.80;16.20;102130.00;;;;5026361;28;20195;-43
2023/03/01 00:08:17;;;;;;;2.60;2.30;;;15.50;56.70;16.20;102125.00;;;;5027889;28;20178;-44
2023/03/01 00:10:43;;;;;;;2.47;2.27;;;15.50;56.80;16.20;102130.00;;;;5027407;28;20186;-44
2023/03/01 00:13:08;;;;;;;2.60;2.40;;;15.50;56.80;16.20;102118.00;;;;5028022;28;20174;-44
2023/03/01 00:15:39;;;;;;;2.70;2.30;;;15.50;56.90;16.10;102121.00;;;;5027963;28;20190;-43
2023/03/01 00:18:05;;;;;;;2.60;2.40;;;15.40;56.80;16.10;102125.00;;;;5020073;28;20286;-44
2023/03/01 00:20:31;;;;;;;2.87;2.33;;;15.40;56.80;16.10;102128.00;;;;5027367;28;20253;-43
2023/03/01 00:22:56;;;;;;;2.47;2.27;;;15.40;56.80;16.10;102127.00;;;;5028104;28;20194;-43
2023/03/01 00:25:22;;;;;;;2.60;2.40;;;15.40;56.80;16.10;102125.00;;;;5027956;28;20211;-43
2023/03/01 00:27:48;;;;;;;2.67;2.30;;;15.40;56.80;16.10;102120.00;;;;5028280;28;20248;-43
2023/03/01 00:30:14;;;;;;;2.37;2.17;;;15.40;56.90;16.00;102122.00;;;;5027492;28;20190;-44
2023/03/01 00:32:40;;;;;;;2.30;2.10;;;15.40;56.90;16.00;102118.00;;;;5026788;28;20171;-43
2023/03/01 00:35:06;;;;;;;2.33;2.13;;;15.30;56.80;16.00;102120.00;;;;5031717;28;20230;-44
2023/03/01 00:37:32;;;;;;;2.13;2.00;;;15.30;56.80;16.00;102125.00;;;;5032153;28;20253;-43
2023/03/01 00:39:58;;;;;;;2.57;2.37;;;15.30;56.80;16.00;102118.00;;;;5031952;28;20210;-46
2023/03/01 00:42:23;;;;;;;2.60;2.40;;;15.30;56.80;15.90;102117.00;;;;5031326;28;20654;-43
2023/03/01 00:44:49;;;;;;;2.20;2.10;;;15.20;56.70;15.90;102107.00;;;;5031616;28;20211;-43
2023/03/01 00:47:15;;;;;;;2.30;2.10;;;15.20;56.80;15.90;102109.00;;;;5025879;28;20187;-43
2023/03/01 00:49:41;;;;;;;2.17;2.00;;;15.20;57.40;15.90;102098.00;;;;5027626;28;20167;-43
2023/03/01 00:52:06;;;;;;;2.50;2.30;;;15.20;56.70;15.80;102103.00;;;;5035350;28;20526;-43
2023/03/01 00:54:32;;;;;;;2.60;2.40;;;15.20;56.80;15.80;102095.00;;;;5035125;28;20207;-43
2023/03/01 00:56:58;;;;;;;2.40;2.20;;;15.20;56.80;15.80;102105.00;;;;5038849;28;20189;-44
2023/03/01 00:59:23;;;;;;;2.40;2.20;;;15.10;57.40;15.80;102100.00;;;;5039542;28;20198;-51
2023/03/01 01:01:49;;;;;;;2.47;2.27;;;15.10;56.70;15.80;102087.00;;;;5035195;28;20186;-44
2023/03/01 01:04:15;;;;;;;2.33;2.13;;;15.10;56.70;15.80;102086.00;;;;5040383;28;20242;-43
2023/03/01 01:06:43;;;;;;;2.60;2.40;;;15.10;56.70;15.70;102082.00;;;;5032538;28;20257;-43
2023/03/01 01:09:16;;;;;;;2.20;2.10;;;15.00;56.70;15.70;102081.00;;;;5031392;28;20221;-43
2023/03/01 01:11:46;;;;;;;2.50;2.30;;;15.10;56.80;15.70;102091.00;;;;5031127;28;20266;-44
2023/03/01 01:14:12;;;;;;;2.40;2.20;;;15.00;56.80;15.70;102082.00;;;;5031488;28;20261;-43
2023/03/01 01:16:38;;;;;;;2.40;2.20;;;14.80;56.60;15.70;102086.00;;;;5030178;28;20661;-44
2023/03/01 01:19:04;;;;;;;2.40;2.20;;;15.00;56.80;15.70;102083.00;;;;5031126;28;20792;-43
2023/03/01 01:21:30;;;;;;;2.30;2.10;;;15.00;56.70;15.70;102073.00;;;;5031364;28;20182;-43
2023/03/01 01:23:56;;;;;;;2.30;2.10;;;15.00;56.70;15.60;102076.00;;;;5031380;28;20207;-44
2023/03/01 01:26:24;;;;;;;2.30;2.10;;;14.90;56.60;15.70;102069.00;;;;5030988;28;20194;-43
2023/03/01 01:28:50;;;;;;;2.40;2.20;;;14.90;56.60;15.60;102060.00;;;;5031222;28;20179;-43
2023/03/01 01:31:16;;;;;;;2.40;2.20;;;14.90;56.60;15.60;102067.00;;;;5032299;28;20186;-43
2023/03/01 01:33:42;;;;;;;2.53;2.33;;;14.90;56.50;15.60;102060.00;;;;5032568;28;20170;-43
2023/03/01 01:36:08;;;;;;;2.47;2.27;;;14.90;56.50;15.60;102058.00;;;;5031535;28;20191;-44
2023/03/01 01:38:35;;;;;;;2.40;2.20;;;14.90;56.50;15.60;102046.00;;;;5031137;28;20605;-43
2023/03/01 01:41:00;;;;;;;2.40;2.20;;;14.80;56.40;15.60;102055.00;;;;5030612;28;20531;-44
2023/03/01 01:43:29;;;;;;;2.30;2.10;;;14.90;56.40;15.60;102044.00;;;;5030323;28;20182;-45
2023/03/01 01:46:01;;;;;;;2.23;2.10;;;14.80;56.30;15.50;102035.00;;;;5030668;28;20207;-43
2023/03/01 01:48:43;;;;;;;2.50;2.30;;;14.80;56.30;15.60;102028.00;;;;5028613;28;20175;-43
2023/03/01 01:51:19;;;;;;;2.33;2.13;;;14.80;56.30;15.50;102036.00;;;;5029054;28;20202;-43
2023/03/01 01:53:47;;;;;;;2.40;2.20;;;14.80;56.30;15.50;102040.00;;;;5029448;28;20171;-43
2023/03/01 01:56:13;;;;;;;2.33;2.13;;;14.80;56.50;15.50;102016.00;;;;5030431;28;20201;-43
2023/03/01 01:58:39;;;;;;;2.10;2.00;;;14.80;56.30;15.50;102023.00;;;;5029335;28;20552;-43
2023/03/01 02:01:05;;;;;;;2.20;2.00;;;14.80;56.30;15.50;102023.00;;;;5030115;28;20198;-43
2023/03/01 02:03:33;;;;;;;2.30;2.10;;;14.80;56.30;15.50;102023.00;;;;5025406;28;20183;-43
2023/03/01 02:06:07;;;;;;;2.50;2.30;;;14.80;56.30;15.50;102014.00;;;;5025878;28;20665;-43
2023/03/01 02:08:36;;;;;;;2.50;2.30;;;14.70;56.20;15.50;102013.00;;;;5029859;28;20170;-43
2023/03/01 02:11:04;;;;;;;2.30;2.10;;;14.70;56.20;15.40;102012.00;;;;5028390;28;20225;-44
2023/03/01 02:13:31;;;;;;;2.40;2.20;;;14.70;56.20;15.40;102024.00;;;;5030396;28;20676;-44
2023/03/01 02:15:56;;;;;;;2.40;2.20;;;14.70;56.40;15.40;102018.00;;;;5029103;28;20253;-44
2023/03/01 02:18:23;;;;;;;2.20;2.10;;;14.60;56.30;15.40;101989.00;;;;5030352;28;20864;-43
2023/03/01 02:21:26;;;;;;;2.13;2.03;;;14.60;56.30;15.40;102015.00;;;;5034050;28;20261;-44
2023/03/01 02:23:56;;;;;;;2.40;2.20;;;14.60;56.50;15.30;102009.00;;;;5030182;28;20210;-44
2023/03/01 02:26:39;;;;;;;2.40;2.20;;;14.60;56.50;15.30;102009.00;;;;5028552;28;20199;-44
2023/03/01 02:29:05;;;;;;;2.77;2.40;;;14.60;56.40;15.30;102019.00;;;;5028466;28;20792;-43
2023/03/01 02:31:43;;;;;;;2.47;2.27;;;14.50;56.40;15.30;102017.00;;;;5028349;28;20183;-43
2023/03/01 02:34:29;;;;;;;2.47;2.27;;;14.50;56.50;15.30;102017.00;;;;5028572;28;20174;-43
2023/03/01 02:37:07;;;;;;;2.40;2.20;;;14.50;56.50;15.20;102009.00;;;;5029020;28;20276;-44
2023/03/01 02:39:48;;;;;;;2.30;2.10;;;14.50;56.50;15.20;102010.00;;;;5030386;28;20175;-44
2023/03/01 02:42:18;;;;;;;2.30;2.10;;;14.50;56.50;15.20;102015.00;;;;5028286;28;20248;-44
2023/03/01 02:44:44;;;;;;;2.50;2.30;;;14.50;56.50;15.00;102006.00;;;;5028512;28;20277;-43
2023/03/01 02:47:10;;;;;;;2.40;2.20;;;14.50;56.50;15.20;102005.00;;;;5029561;28;20195;-44
2023/03/01 02:49:36;;;;;;;2.17;2.00;;;14.50;56.40;15.20;102013.00;;;;5029914;28;20587;-44
2023/03/01 02:52:28;;;;;;;2.30;2.10;;;14.50;56.40;15.20;102018.00;;;;5028428;28;20175;-44
2023/03/01 02:55:12;;;;;;;2.60;2.40;;;14.40;56.40;15.10;102011.00;;;;5029593;28;20256;-43
2023/03/01 02:57:40;;;;;;;2.40;2.20;;;14.40;56.40;15.10;102004.00;;;;5028260;28;20182;-44
2023/03/01 03:00:18;;;;;;;2.40;2.20;;;14.40;56.20;15.10;102002.00;;;;5028272;28;20222;-44
2023/03/01 03:02:48;;;;;;;2.30;2.10;;;14.40;56.30;15.10;101996.00;;;;5028350;28;20167;-43
2023/03/01 03:05:23;;;;;;;2.23;2.03;;;14.40;56.30;15.10;101988.00;;;;5029464;28;20618;-44
2023/03/01 03:07:49;;;;;;;2.40;2.20;;;14.30;56.30;15.10;101988.00;;;;5029957;28;20228;-43
2023/03/01 03:10:45;;;;;;;2.63;2.43;;;14.30;56.30;15.00;101987.00;;;;5029392;28;20179;-43
2023/03/01 03:13:12;;;;;;;2.40;2.20;;;14.30;56.30;15.00;101986.00;;;;5028220;28;20182;-43
2023/03/01 03:15:39;;;;;;;2.27;2.07;;;14.30;56.30;15.00;101975.00;;;;5029456;28;20194;-43
2023/03/01 03:18:08;;;;;;;2.10;2.00;;;14.30;56.90;15.00;101989.00;;;;5029628;28;20243;-43
2023/03/01 03:20:34;;;;;;;2.40;2.20;;;14.20;56.30;15.00;101990.00;;;;5029355;28;20254;-43
2023/03/01 03:23:00;;;;;;;2.77;2.10;;;14.20;56.20;15.00;101979.00;;;;5029403;28;20198;-46
2023/03/01 03:25:27;;;;;;;2.10;2.00;;;14.20;56.10;15.00;101987.00;;;;5029065;28;20207;-43
2023/03/01 03:27:59;;;;;;;2.40;2.20;;;14.20;56.20;15.00;101978.00;;;;5029204;28;20233;-43
2023/03/01 03:30:30;;;;;;;2.33;2.20;;;14.20;56.20;14.90;101978.00;;;;5027573;28;20224;-44
2023/03/01 03:32:56;;;;;;;2.37;2.20;;;14.20;56.20;14.90;101971.00;;;;5021603;28;20709;-43
2023/03/01 03:35:31;;;;;;;2.30;2.10;;;14.10;56.10;14.90;101962.00;;;;5028656;28;20226;-43
2023/03/01 03:38:02;;;;;;;2.30;2.10;;;14.10;56.10;14.90;101975.00;;;;5028120;28;20371;-43
2023/03/01 03:40:30;;;;;;;2.33;2.13;;;14.10;56.10;14.80;101988.00;;;;5033908;28;20195;-43
2023/03/01 03:42:56;;;;;;;2.20;2.10;;;14.10;56.10;14.80;101981.00;;;;5029226;28;20524;-43
2023/03/01 03:45:22;;;;;;;2.30;2.10;;;14.10;56.10;14.80;101979.00;;;;5028631;28;20214;-43
2023/03/01 03:47:47;;;;;;;2.50;2.30;;;14.10;56.10;14.80;101972.00;;;;5028691;28;20582;-44
2023/03/01 03:50:15;;;;;;;2.30;2.10;;;14.10;56.10;14.80;101982.00;;;;5028859;28;20605;-43
2023/03/01 03:52:41;;;;;;;2.27;2.17;;;14.00;56.10;14.80;101978.00;;;;5029157;28;20664;-44
2023/03/01 03:55:10;;;;;;;2.40;2.20;;;14.00;56.10;14.80;101976.00;;;;5038311;28;20194;-43
2023/03/01 03:57:51;;;;;;;2.33;2.20;;;14.00;56.10;14.80;101963.00;;;;5029968;28;20170;-43
2023/03/01 04:00:21;;;;;;;2.43;2.23;;;14.00;56.10;14.70;101961.00;;;;5032953;28;20171;-43
2023/03/01 04:02:47;;;;;;;2.87;2.20;;;14.00;56.20;14.70;101959.00;;;;5028455;28;20256;-43
2023/03/01 04:05:15;;;;;;;2.40;2.20;;;14.00;56.10;14.70;101948.00;;;;5028647;28;20210;-43
2023/03/01 04:07:41;;;;;;;2.00;1.90;;;13.90;56.00;14.70;101942.00;;;;5028771;28;20171;-44
2023/03/01 04:10:13;;;;;;;2.40;2.20;;;14.00;56.10;14.60;101945.00;;;;5028560;28;20595;-43
2023/03/01 04:12:39;;;;;;;2.40;2.20;;;13.90;56.00;14.60;101939.00;;;;5028820;28;20248;-45
2023/03/01 04:15:12;;;;;;;2.20;2.00;;;13.90;56.00;14.60;101945.00;;;;5028847;28;20704;-43
2023/03/01 04:17:46;;;;;;;2.50;2.30;;;13.90;56.00;14.60;101949.00;;;;5028629;28;20190;-44
2023/03/01 04:20:17;;;;;;;2.60;2.40;;;13.90;56.10;14.60;101936.00;;;;5028504;28;20234;-43
2023/03/01 04:22:43;;;;;;;2.50;2.30;;;13.80;56.00;14.50;101939.00;;;;5028463;28;20776;-43
2023/03/01 04:25:09;;;;;;;2.50;2.30;;;13.80;56.10;14.50;101941.00;;;;5028475;28;20206;-43
2023/03/01 04:27:35;;;;;;;2.50;2.30;;;13.80;56.10;14.50;101940.00;;;;5024578;28;20606;-44
2023/03/01 04:30:01;;;;;;;3.30;2.20;;;13.80;56.60;14.50;101936.00;;;;5028560;28;20190;-43
2023/03/01 04:32:27;;;;;;;4.57;2.20;;;13.80;56.60;14.50;101946.00;;;;5014635;28;20928;-44
2023/03/01 04:34:53;;;;;;;5.30;2.20;;;13.80;56.60;14.50;101934.00;;;;5016216;28;20291;-43
2023/03/01 04:37:18;;;;;;;2.90;2.20;;;13.80;56.60;14.50;101926.00;;;;5019063;28;20202;-43
2023/03/01 04:39:47;;;;;;;2.50;2.30;;;13.80;56.60;14.50;101946.00;;;;5028235;28;20213;-43
2023/03/01 04:42:16;;;;;;;3.60;2.33;;;13.80;56.60;14.40;101938.00;;;;5027823;28;20179;-44
2023/03/01 04:44:43;;;;;;;3.10;2.63;;;13.70;56.50;14.30;101930.00;;;;5022567;28;20207;-44
2023/03/01 04:47:09;;;;;;;5.13;2.70;;;13.70;56.10;14.40;101935.00;;;;5026438;28;20205;-43
2023/03/01 04:49:34;;;;;;;4.50;2.90;;;13.70;55.80;14.40;101932.00;;;;5029210;28;20207;-43
2023/03/01 04:52:03;;;;;;;3.20;2.90;;;13.60;55.70;14.40;101922.00;;;;5027873;28;20178;-44
2023/03/01 04:54:32;;;;;;;4.63;3.10;;;13.60;55.40;14.40;101935.00;;;;5028967;28;20788;-43
2023/03/01 04:56:58;;;;;;;4.33;3.27;;;13.60;55.00;14.40;101937.00;;;;5029151;28;20183;-44
2023/03/01 04:59:24;;;;;;;4.10;3.70;;;13.60;54.80;14.30;101932.00;;;;5029520;28;20248;-43
2023/03/01 05:01:51;;;;;;;4.07;3.60;;;13.60;54.70;14.30;101839.00;;;;5037302;28;20183;-43
2023/03/01 05:04:17;;;;;;;4.03;3.73;;;13.50;54.30;14.30;101921.00;;;;5032520;28;20214;-43
2023/03/01 05:06:43;;;;;;;4.43;3.47;;;13.50;54.10;14.20;101923.00;;;;5032189;28;20175;-43
2023/03/01 05:09:08;;;;;;;4.37;3.97;;;13.50;54.60;14.20;101921.00;;;;5029389;28;20681;-43
2023/03/01 05:11:35;;;;;;;4.30;3.90;;;13.40;53.50;14.20;101919.00;;;;5028979;28;20236;-44
2023/03/01 05:14:08;;;;;;;3.93;3.53;;;13.40;53.70;14.10;101907.00;;;;5029092;28;20229;-43
2023/03/01 05:16:35;;;;;;;4.90;4.17;;;13.40;53.50;14.10;101910.00;;;;5027965;28;20195;-43
2023/03/01 05:19:11;;;;;;;6.07;4.07;;;13.40;53.80;14.10;101913.00;;;;5030298;28;20257;-44
2023/03/01 05:22:01;;;;;;;6.27;3.60;;;13.40;54.00;14.10;101909.00;;;;5033199;28;20556;-43
2023/03/01 05:24:23;;;;;;;4.27;3.63;;;13.40;54.10;14.10;101924.00;;;;5025151;28;20211;-43
2023/03/01 05:26:51;;;;;;;5.37;3.50;;;13.40;54.20;14.10;101929.00;;;;5022972;28;20176;-43
2023/03/01 05:29:24;;;;;;;5.17;3.67;;;13.40;54.30;14.10;101922.00;;;;5026524;28;20171;-43
2023/03/01 05:31:54;;;;;;;5.13;3.80;;;13.40;54.50;14.00;101920.00;;;;5032120;28;20310;-44
2023/03/01 05:34:25;;;;;;;6.20;3.57;;;13.40;54.60;14.00;101917.00;;;;5023957;28;20261;-44
2023/03/01 05:36:52;;;;;;;5.13;3.40;;;13.40;54.90;14.00;101914.00;;;;5027201;28;20182;-44
2023/03/01 05:39:23;;;;;;;5.97;3.60;;;13.40;54.90;14.00;101920.00;;;;5021964;28;20251;-43
2023/03/01 05:41:56;;;;;;;16.73;4.60;;;13.30;54.90;14.00;101918.00;;;;5021046;28;20186;-43
2023/03/01 05:44:22;;;;;;;25.93;5.93;;;13.40;55.10;14.00;101916.00;;;;5017143;28;20211;-43
2023/03/01 05:46:49;;;;;;;17.17;4.57;;;13.30;55.10;14.00;101913.00;;;;5027704;28;20335;-44
2023/03/01 05:49:15;;;;;;;17.43;5.30;;;13.30;55.10;14.00;101905.00;;;;5021903;28;20543;-43
2023/03/01 05:51:41;;;;;;;17.57;4.87;;;13.30;55.10;13.90;101910.00;;;;5020977;28;20179;-43
2023/03/01 05:54:07;;;;;;;10.73;4.37;;;13.30;55.10;13.90;101912.00;;;;5025983;28;20202;-43
2023/03/01 05:56:34;;;;;;;12.97;4.70;;;13.30;55.20;13.90;101906.00;;;;5022166;28;20662;-43
2023/03/01 05:59:00;;;;;;;12.30;4.70;;;13.20;55.10;13.90;101825.00;;;;5022009;28;20183;-42
2023/03/01 06:01:26;;;;;;;10.20;4.70;;;13.30;55.40;13.90;101912.00;;;;5026889;28;20175;-43
2023/03/01 06:03:52;;;;;;;14.30;4.57;;;13.30;55.40;13.90;101925.00;;;;5031084;28;20561;-43
2023/03/01 06:06:18;;;;;;;9.30;4.50;;;13.20;55.30;13.90;101910.00;;;;5030954;28;20230;-43
2023/03/01 06:08:43;;;;;;;13.07;4.40;;;13.20;55.40;13.90;101915.00;;;;5031213;28;20171;-43
2023/03/01 06:11:09;;;;;;;11.17;4.47;;;13.20;55.40;13.90;101912.00;;;;5030367;28;20182;-43
2023/03/01 06:13:35;;;;;;;9.30;4.27;;;13.20;55.40;13.90;101911.00;;;;5030100;28;20215;-43
2023/03/01 06:16:04;;;;;;;14.47;4.60;;;13.20;55.50;13.80;101900.00;;;;5031127;28;20191;-44
2023/03/01 06:18:30;;;;;;;10.03;4.40;;;13.20;55.60;13.80;101901.00;;;;5030129;28;20189;-43
2023/03/01 06:20:56;;;;;;;9.60;4.07;;;13.20;55.70;13.80;101910.00;;;;5027311;28;20179;-43
2023/03/01 06:23:22;;;;;;;13.23;4.20;;;13.20;55.90;13.80;101922.00;;;;5030825;28;20226;-43
2023/03/01 06:25:48;;;;;;;12.83;3.90;;;13.30;55.90;13.90;101916.00;;;;5037727;28;20218;-43
2023/03/01 06:28:14;;;;;;;11.40;4.17;;;13.30;55.90;13.90;101913.00;;;;5030607;28;20213;-43
2023/03/01 06:30:40;;;;;;;11.73;3.53;;;13.40;56.00;13.90;101911.00;;;;5028549;28;20166;-43
2023/03/01 06:33:05;;;;;;;6.70;3.80;;;13.40;56.00;14.00;101906.00;;;;5023089;28;20175;-43
2023/03/01 06:35:31;;;;;;;9.57;3.90;;;13.40;56.00;14.00;101909.00;;;;5022141;28;20194;-43
2023/03/01 06:37:59;;;;;;;8.67;3.73;;;13.50;56.10;14.10;101906.00;;;;5029826;28;20183;-44
2023/03/01 06:40:25;;;;;;;7.90;3.50;;;13.60;56.20;14.20;101907.00;;;;5029084;28;20189;-43
2023/03/01 06:42:51;;;;;;;7.97;3.77;;;13.70;56.20;14.30;101909.00;;;;5030639;28;20171;-43
2023/03/01 06:45:18;;;;;;;9.10;3.67;;;13.70;56.20;14.40;101910.00;;;;5030471;28;20211;-44
2023/03/01 06:47:43;;;;;;;5.77;3.70;;;13.90;56.30;14.50;101908.00;;;;5029700;28;20190;-43
2023/03/01 06:50:10;;;;;;;7.33;3.13;;;13.90;56.10;14.50;101907.00;;;;5030551;28;20565;-43
2023/03/01 06:52:35;;;;;;;5.00;3.10;;;14.00;56.10;14.60;101907.00;;;;5028882;28;20541;-42
2023/03/01 06:55:01;;;;;;;5.93;3.07;;;14.10;56.10;14.70;101901.00;;;;5029117;28;20195;-43
2023/03/01 06:57:27;;;;;;;5.17;3.17;;;14.20;56.20;14.80;101909.00;;;;5031004;28;20270;-43
2023/03/01 06:59:53;;;;;;;6.13;3.43;;;14.30;56.30;14.90;101907.00;;;;5030216;28;20218;-43
2023/03/01 07:02:18;;;;;;;4.70;2.90;;;14.40;56.30;15.00;101909.00;;;;5029367;28;20187;-43
2023/03/01 07:04:44;;;;;;;8.33;3.03;;;14.50;56.20;15.10;101903.00;;;;5029987;28;20206;-43
2023/03/01 07:07:10;;;;;;;5.77;3.40;;;14.50;56.20;15.20;101897.00;;;;5030271;28;20178;-43
2023/03/01 07:09:36;;;;;;;5.67;3.00;;;14.60;56.10;15.20;101897.00;;;;5030205;28;20245;-43
2023/03/01 07:12:01;;;;;;;4.33;2.97;;;14.70;56.20;15.30;101901.00;;;;5029538;28;20182;-42
2023/03/01 07:14:27;;;;;;;5.60;3.27;;;14.80;56.80;15.40;101888.00;;;;5029381;28;20553;-43
2023/03/01 07:16:53;;;;;;;4.53;3.00;;;14.80;56.10;15.50;101888.00;;;;5030420;28;20213;-43
2023/03/01 07:19:20;;;;;;;4.80;2.80;;;14.90;56.10;15.50;101887.00;;;;5029551;28;20315;-43
2023/03/01 07:21:45;;;;;;;4.30;3.10;;;15.00;56.20;15.60;101890.00;;;;5029645;28;20785;-43
2023/03/01 07:24:11;;;;;;;4.50;2.90;;;15.00;56.10;15.70;101895.00;;;;5029525;28;20206;-43
2023/03/01 07:26:37;;;;;;;4.30;3.00;;;15.10;56.20;15.80;101889.00;;;;5028381;28;20199;-44
2023/03/01 07:29:04;;;;;;;3.63;2.80;;;15.20;56.20;15.80;101884.00;;;;5029568;28;20272;-43
2023/03/01 07:31:29;;;;;;;4.43;3.13;;;15.20;56.10;15.90;101890.00;;;;5029879;28;20234;-43
2023/03/01 07:33:55;;;;;;;3.20;2.60;;;15.20;56.10;15.90;101892.00;;;;5034388;28;20213;-44
2023/03/01 07:36:21;;;;;;;5.37;3.17;;;15.30;56.20;16.00;101900.00;;;;5029671;28;20209;-43
2023/03/01 07:38:47;;;;;;;3.33;2.93;;;15.40;56.20;16.00;101884.00;;;;5029556;28;20186;-44
2023/03/01 07:41:12;;;;;;;4.83;3.03;;;15.50;56.30;16.10;101884.00;;;;5028671;28;20565;-43
2023/03/01 07:43:38;;;;;;;6.10;2.80;;;15.50;56.20;16.10;101884.00;;;;5030250;28;20210;-44
2023/03/01 07:46:04;;;;;;;3.90;3.40;;;15.50;56.10;16.10;101888.00;;;;5029305;28;20203;-44
2023/03/01 07:48:30;;;;;;;3.37;2.73;;;15.50;56.10;16.20;101892.00;;;;5028372;28;20228;-44
2023/03/01 07:51:04;;;;;;;4.80;2.67;;;15.60;56.10;16.20;101894.00;;;;5029178;28;20650;-44
2023/03/01 07:53:31;;;;;;;4.63;3.10;;;15.60;56.10;16.20;101894.00;;;;5029348;28;20171;-44
2023/03/01 07:56:12;;;;;;;5.33;3.20;;;15.60;56.10;16.30;101891.00;;;;5028601;28;20241;-48
2023/03/01 07:58:41;;;;;;;3.37;2.93;;;15.60;56.10;16.30;101889.00;;;;5026720;28;20795;-44
2023/03/01 08:01:10;;;;;;;3.97;2.70;;;15.70;56.20;16.30;101888.00;;;;5027548;28;20214;-44
2023/03/01 08:03:36;;;;;;;4.90;2.80;;;15.60;56.10;16.30;101889.00;;;;5028779;28;20544;-43
2023/03/01 08:06:06;;;;;;;2.97;2.57;;;15.60;56.10;16.30;101891.00;;;;5027615;28;20226;-43
2023/03/01 08:08:32;;;;;;;4.67;2.43;;;15.70;56.20;16.30;101896.00;;;;5028268;28;20175;-43
2023/03/01 08:11:02;;;;;;;2.63;2.43;;;15.70;56.20;16.30;101891.00;;;;5027891;28;20186;-43
2023/03/01 08:13:28;;;;;;;3.20;2.90;;;15.70;56.30;16.30;101888.00;;;;5029264;28;20175;-43
2023/03/01 08:15:54;;;;;;;2.90;2.60;;;15.70;56.30;16.30;101886.00;;;;5029360;28;20195;-43
2023/03/01 08:18:20;;;;;;;2.90;2.60;;;15.70;56.20;16.30;101890.00;;;;5028056;28;20254;-43
2023/03/01 08:20:46;;;;;;;2.80;2.43;;;15.70;56.20;16.40;101893.00;;;;5028491;28;20202;-43
2023/03/01 08:23:12;;;;;;;2.97;2.67;;;15.70;56.20;16.40;101890.00;;;;5029198;28;20648;-43
2023/03/01 08:25:38;;;;;;;4.13;2.63;;;15.80;56.30;16.40;101889.00;;;;5029877;28;20206;-43
2023/03/01 08:28:04;;;;;;;4.30;2.80;;;15.70;56.30;16.40;101881.00;;;;5028955;28;20262;-43
2023/03/01 08:30:29;;;;;;;2.50;2.30;;;15.80;56.40;16.40;101890.00;;;;5028872;28;20186;-43
2023/03/01 08:32:55;;;;;;;3.87;2.47;;;15.80;56.60;16.50;101894.00;;;;5029335;28;20610;-44
2023/03/01 08:35:21;;;;;;;3.40;2.83;;;15.90;56.80;16.50;101894.00;;;;5028779;28;20568;-44
2023/03/01 08:37:47;;;;;;;3.53;2.47;;;15.90;56.80;16.50;101901.00;;;;5029252;28;20265;-44
2023/03/01 08:40:13;;;;;;;3.53;2.60;;;15.90;56.90;16.50;101897.00;;;;5028958;28;20266;-43
2023/03/01 08:42:40;;;;;;;5.00;2.73;;;15.90;56.80;16.60;101889.00;;;;5028977;28;20171;-44
2023/03/01 08:45:07;;;;;;;2.60;2.40;;;15.90;57.20;16.60;101900.00;;;;5027240;28;20207;-43
2023/03/01 08:47:33;;;;;;;11.90;2.80;;;16.00;57.10;16.60;101909.00;;;;5025214;28;20171;-43
2023/03/01 08:50:00;;;;;;;6.73;2.40;;;16.00;57.20;16.60;101900.00;;;;5027483;28;20688;-43
2023/03/01 08:52:25;;;;;;;4.33;2.53;;;16.00;57.30;16.60;101900.00;;;;5027773;28;20171;-43
2023/03/01 08:54:51;;;;;;;4.00;2.60;;;16.00;57.10;16.60;101894.00;;;;5029987;28;20225;-43
2023/03/01 08:57:17;;;;;;;5.23;2.60;;;16.10;57.30;16.70;101901.00;;;;5032539;28;20626;-43
2023/03/01 08:59:43;;;;;;;2.83;2.50;;;16.00;57.20;16.70;101888.00;;;;5031751;28;20252;-43
2023/03/01 09:02:14;;;;;;;4.03;2.80;;;16.00;57.20;16.70;101882.00;;;;5035981;28;20174;-42
2023/03/01 09:04:40;;;;;;;2.70;2.50;;;16.10;57.30;16.70;101887.00;;;;5031352;28;20206;-43
2023/03/01 09:07:06;;;;;;;3.80;2.50;;;16.10;57.30;16.70;101891.00;;;;5017935;28;20655;-43
2023/03/01 09:09:31;;;;;;;2.90;2.60;;;16.10;57.20;16.70;101889.00;;;;5024561;28;20178;-44
2023/03/01 09:11:57;;;;;;;3.00;2.60;;;16.00;57.10;16.70;101884.00;;;;5031662;28;20558;-43
2023/03/01 09:14:23;;;;;;;4.70;2.50;;;16.10;57.10;16.70;101892.00;;;;5034553;28;20236;-43
2023/03/01 09:16:49;;;;;;;3.73;2.50;;;16.10;57.10;16.70;101890.00;;;;5032337;28;20243;-43
2023/03/01 09:19:14;;;;;;;4.90;2.80;;;16.10;57.10;16.70;101891.00;;;;5035294;28;20179;-43
2023/03/01 09:21:41;;;;;;;3.03;2.40;;;16.10;57.10;16.70;101883.00;;;;5025575;28;20180;-42
2023/03/01 09:24:16;;;;;;;3.80;2.50;;;16.10;57.10;16.80;101876.00;;;;5028339;28;20208;-43
2023/03/01 09:26:42;;;;;;;4.57;2.50;;;16.10;57.00;16.80;101870.00;;;;5031675;28;20281;-43
2023/03/01 09:29:09;;;;;;;2.60;2.40;;;16.20;57.00;16.80;101872.00;;;;5031625;28;20305;-43
2023/03/01 09:31:35;;;;;;;3.03;2.30;;;16.20;57.60;16.80;101871.00;;;;5031682;28;20175;-43
2023/03/01 09:34:00;;;;;;;2.80;2.50;;;16.20;57.00;16.80;101861.00;;;;5032407;28;20245;-43
2023/03/01 09:36:26;;;;;;;3.20;2.67;;;16.20;57.00;16.80;101864.00;;;;5031472;28;20195;-43
2023/03/01 09:38:53;;;;;;;5.93;2.40;;;16.20;57.00;16.80;101857.00;;;;5031718;28;20182;-45
2023/03/01 09:41:45;;;;;;;6.27;2.70;;;16.30;57.10;16.90;101858.00;;;;5030904;28;20187;-45
2023/03/01 09:44:24;;;;;;;5.33;2.47;;;16.30;57.50;16.90;101852.00;;;;5030410;28;20200;-44
2023/03/01 09:46:51;;;;;;;2.77;2.50;;;16.20;57.60;16.90;101851.00;;;;5030110;28;20179;-44
2023/03/01 09:49:26;;;;;;;2.63;2.33;;;16.20;57.70;16.90;101844.00;;;;5030337;28;20179;-44
2023/03/01 09:52:23;;;;;;;2.63;2.40;;;16.20;57.90;16.90;101843.00;;;;5030598;28;20179;-44
2023/03/01 09:54:52;;;;;;;4.63;2.70;;;16.20;57.90;16.90;101851.00;;;;5029994;28;20334;-44
2023/03/01 09:57:43;;;;;;;5.27;2.60;;;16.20;57.70;16.90;101844.00;;;;5030194;28;20190;-44
2023/03/01 10:00:59;;;;;;;3.90;2.50;;;16.20;57.70;16.90;101843.00;;;;5030211;28;20175;-44
2023/03/01 10:03:34;;;;;;;4.13;2.27;;;16.30;57.80;16.90;101841.00;;;;5022296;28;20560;-44
2023/03/01 10:06:25;;;;;;;3.33;2.50;;;16.30;57.70;16.90;101834.00;;;;5030068;28;20697;-44
2023/03/01 10:09:10;;;;;;;8.77;2.50;;;16.30;57.80;16.90;101833.00;;;;5027865;28;20183;-44
2023/03/01 10:11:38;;;;;;;6.93;2.80;;;16.30;57.90;16.90;101829.00;;;;5020518;28;20522;-44
2023/03/01 10:14:48;;;;;;;5.83;2.47;;;16.30;58.00;17.00;101837.00;;;;5021170;28;20178;-44
2023/03/01 10:17:33;;;;;;;5.53;2.70;;;16.30;58.00;17.00;101836.00;;;;5020074;28;20182;-44
2023/03/01 10:20:21;;;;;;;4.60;2.50;;;16.30;58.00;17.00;101836.00;;;;5018602;28;20525;-43
2023/03/01 10:22:52;;;;;;;4.50;2.50;;;16.40;58.20;17.00;101834.00;;;;5021897;28;20818;-44
2023/03/01 10:25:40;;;;;;;3.13;2.50;;;16.40;58.30;17.00;101827.00;;;;5025214;28;20199;-45
2023/03/01 10:28:59;;;;;;;3.60;2.47;;;16.40;58.70;17.10;101818.00;;;;5016493;28;20650;-44
2023/03/01 10:31:36;;;;;;;4.00;2.67;;;16.40;58.70;17.10;101827.00;;;;5029089;28;20253;-45
2023/03/01 10:34:07;;;;;;;3.47;2.40;;;16.50;58.30;17.10;101815.00;;;;5029365;28;20528;-43
2023/03/01 10:36:33;;;;;;;4.97;2.40;;;16.50;58.10;17.10;101821.00;;;;5032403;28;20198;-44
2023/03/01 10:38:59;;;;;;;5.70;2.70;;;16.50;58.10;17.10;101820.00;;;;5030983;28;20236;-43
2023/03/01 10:41:27;;;;;;;3.57;2.47;;;16.50;58.10;17.10;101811.00;;;;5022423;28;20233;-44
2023/03/01 10:43:59;;;;;;;3.80;2.33;;;16.50;58.40;17.10;101803.00;;;;5021021;28;20198;-45
2023/03/01 10:46:34;;;;;;;3.67;2.57;;;16.50;58.40;17.20;101795.00;;;;5022681;28;20398;-44
2023/03/01 10:49:21;;;;;;;3.33;2.20;;;16.50;58.50;17.20;101793.00;;;;5028241;28;20179;-44
2023/03/01 10:51:51;;;;;;;3.07;2.50;;;16.50;58.30;17.20;101785.00;;;;5032991;28;20652;-44
2023/03/01 10:54:32;;;;;;;4.97;2.23;;;16.50;58.20;17.20;101785.00;;;;5032387;28;20628;-44
2023/03/01 10:57:03;;;;;;;4.43;2.57;;;16.50;58.20;17.20;101786.00;;;;5029967;28;20183;-44